This is the latest recevied weather packets stored in our database for station/object XE2OR-10. If no packets are shown the sender has not sent any weather packets the latest 1 day(s).
| Time | Temp. | Humidity | Pressure | Rain* | Wind** | Luminosity | Snow |
|---|---|---|---|---|---|---|---|
| 1778093033 | 32.22° C | 74% | 1013.8 hPa | 0 mm | - | 903 W/m² | - |
| 1778092429 | 31.67° C | 75% | 1013.8 hPa | 0 mm | - | 857 W/m² | - |
| 1778091832 | 31.67° C | 76% | 1013.9 hPa | 0 mm | - | 284 W/m² | - |
| 1778090929 | 31.67° C | 74% | 1014.2 hPa | 0 mm | - | 858 W/m² | - |
| 1778089433 | 32.22° C | 75% | 1014.5 hPa | 0 mm | - | 281 W/m² | - |
| 1778088829 | 31.11° C | 77% | 1014.5 hPa | 0 mm | - | 379 W/m² | - |
| 1778087929 | 31.67° C | 76% | 1014.3 hPa | 0 mm | - | 556 W/m² | - |
| 1778087329 | 31.67° C | 75% | 1014.4 hPa | 0 mm | - | 225 W/m² | - |
| 1778086729 | 31.11° C | 76% | 1014.5 hPa | 0 mm | - | 809 W/m² | - |
| 1778085833 | 31.11° C | 76% | 1014.4 hPa | 0 mm | - | 841 W/m² | - |
| 1778085229 | 30.56° C | 78% | 1014.2 hPa | 0 mm | - | 796 W/m² | - |
| 1778084632 | 30° C | 79% | 1014.3 hPa | 0 mm | - | 871 W/m² | - |
| 1778083729 | 29.44° C | 81% | 1014.3 hPa | 0 mm | - | 253 W/m² | - |
| 1778083129 | 29.44° C | 81% | 1014.3 hPa | 0 mm | - | 304 W/m² | - |
| 1778082529 | 28.33° C | 82% | 1014.1 hPa | 0 mm | - | 219 W/m² | - |
| 1778081629 | 29.44° C | 81% | 1014 hPa | 0 mm | - | 258 W/m² | - |
| 1778081032 | 28.89° C | 82% | 1013.6 hPa | 0 mm | - | 569 W/m² | - |
| 1778080432 | 27.78° C | 84% | 1013.5 hPa | 0 mm | - | 353 W/m² | - |
| 1778079529 | 27.22° C | 86% | 1013.6 hPa | 0 mm | - | 257 W/m² | - |
| 1778078929 | 27.22° C | 86% | 1013.4 hPa | 0 mm | - | 302 W/m² | - |
| 1778078029 | 26.67° C | 88% | 1013.5 hPa | 0 mm | - | 249 W/m² | - |
| 1778075929 | 25° C | 92% | 1013.7 hPa | 0 mm | - | 112 W/m² | - |
| 1778075329 | 25° C | 92% | 1013.4 hPa | 0 mm | - | 60 W/m² | - |
| 1778074729 | 25.56° C | 91% | 1013.7 hPa | 0 mm | - | 33 W/m² | - |
| 1778073833 | 25° C | 91% | 1013.3 hPa | 0 mm | - | 38 W/m² | - |
* Rain latest hour (hover to see other rain measurements)
** Current wind speed in m/s (hover to see current wind gust speed)